Time;durP1;ratioP1;P1;durP2;ratioP2;P2;SDS_P1;SDS_P2;PMS_P1;PMS_P2;Temp;Humidity;BMP_temperature;BMP_pressure;BME280_temperature;BME280_humidity;BME280_pressure;Samples;Min_cycle;Max_cycle;Signal;HPM_P1;HPM_P2
2022/03/24 00:02:14;;;;;;;16.70;15.00;;;;;;;19.18;41.67;100019.70;1770001;81;21057;-63
2022/03/24 00:04:42;;;;;;;16.48;14.80;;;;;;;19.18;41.67;100016.16;1770322;81;21121;-64
2022/03/24 00:07:08;;;;;;;17.37;15.63;;;;;;;19.17;41.69;100013.18;1781099;78;21213;-64
2022/03/24 00:09:37;;;;;;;16.20;14.53;;;;;;;19.16;41.67;100006.13;1780788;80;22009;-64
2022/03/24 00:12:06;;;;;;;17.60;15.90;;;;;;;19.15;41.69;100003.15;1793473;80;21085;-63
2022/03/24 00:14:33;;;;;;;17.48;15.78;;;;;;;19.14;41.69;100001.48;1786990;79;20979;-64
2022/03/24 00:17:00;;;;;;;18.32;16.52;;;;;;;19.12;41.69;99994.14;1786611;80;21046;-64
2022/03/24 00:19:26;;;;;;;17.00;15.30;;;;;;;19.10;41.69;99992.20;1786649;80;21209;-63
2022/03/24 00:21:53;;;;;;;18.02;16.17;;;;;;;19.09;41.69;99986.52;1786642;80;21072;-64
2022/03/24 00:27:15;;;;;;;18.37;16.57;;;;;;;19.11;41.69;99976.36;1889297;76;22455;-64
2022/03/24 00:29:43;;;;;;;18.42;16.52;;;;;;;19.05;41.68;99969.98;1860201;77;21188;-64
2022/03/24 00:32:10;;;;;;;19.02;17.23;;;;;;;19.05;41.68;99971.33;1859784;77;21227;-63
2022/03/24 00:34:38;;;;;;;17.77;15.93;;;;;;;19.04;41.68;99967.81;1834585;77;20930;-64
2022/03/24 00:37:06;;;;;;;18.60;16.55;;;;;;;19.03;41.69;99965.33;1860182;77;21122;-64
2022/03/24 00:39:34;;;;;;;19.00;17.12;;;;;;;19.02;41.70;99964.48;1860395;77;21470;-64
2022/03/24 00:42:11;;;;;;;17.62;15.88;;;;;;;19.00;41.68;99957.15;1856431;77;21088;-64
2022/03/24 00:44:33;;;;;;;18.10;16.30;;;;;;;18.99;41.70;99951.48;1851479;77;21045;-64
2022/03/24 00:47:00;;;;;;;18.62;16.82;;;;;;;18.98;41.69;99952.50;1851980;77;20976;-63
2022/03/24 00:49:28;;;;;;;18.12;16.32;;;;;;;18.97;41.69;99941.45;1852087;77;21013;-64
2022/03/24 00:51:55;;;;;;;18.57;16.73;;;;;;;18.95;41.69;99940.84;1855367;77;20997;-65
2022/03/24 00:54:21;;;;;;;19.42;17.60;;;;;;;18.94;41.68;99935.67;1860147;77;21052;-64
2022/03/24 00:56:48;;;;;;;18.95;17.15;;;;;;;18.93;41.72;99933.52;1860412;77;22072;-64
2022/03/24 00:59:15;;;;;;;18.52;16.62;;;;;;;18.92;41.69;99930.50;1855053;77;21612;-65
2022/03/24 01:01:42;;;;;;;18.85;17.05;;;;;;;18.91;41.70;99919.95;1850628;77;20974;-64
2022/03/24 01:04:10;;;;;;;17.95;16.20;;;;;;;18.90;41.72;99923.17;1850492;77;20967;-64
2022/03/24 01:06:37;;;;;;;18.07;16.30;;;;;;;18.89;41.71;99924.73;1781408;80;21022;-65
2022/03/24 01:09:05;;;;;;;19.65;17.65;;;;;;;18.87;41.70;99920.90;1793935;80;21265;-64
2022/03/24 01:11:32;;;;;;;19.00;17.00;;;;;;;18.85;41.71;99910.88;1793852;80;21049;-65
2022/03/24 01:14:01;;;;;;;17.75;16.05;;;;;;;18.83;41.73;99912.46;1793907;80;20994;-64
2022/03/24 01:16:30;;;;;;;20.12;17.42;;;;;;;18.84;41.72;99909.24;1786376;80;21058;-63
2022/03/24 01:18:58;;;;;;;18.48;16.57;;;;;;;18.82;41.72;99906.77;1782333;80;21482;-62
2022/03/24 01:21:25;;;;;;;18.82;16.93;;;;;;;18.81;41.72;99902.44;1782160;80;21249;-63
2022/03/24 01:23:53;;;;;;;18.10;16.25;;;;;;;18.80;41.72;99900.77;1782286;80;21014;-64
2022/03/24 01:26:19;;;;;;;20.17;18.20;;;;;;;18.79;41.73;99892.88;1782125;80;21030;-65
2022/03/24 01:28:46;;;;;;;19.27;17.37;;;;;;;18.79;41.72;99895.58;1782400;80;21042;-63
2022/03/24 01:31:13;;;;;;;19.50;17.50;;;;;;;18.77;41.74;99888.24;1782282;80;21002;-63
2022/03/24 01:33:40;;;;;;;19.40;17.42;;;;;;;18.76;41.73;99886.61;1782130;80;21249;-63
2022/03/24 01:36:09;;;;;;;18.67;16.87;;;;;;;18.74;41.75;99882.78;1782377;80;21521;-64
2022/03/24 01:38:37;;;;;;;18.17;16.48;;;;;;;18.73;41.74;99881.13;1782661;79;21097;-64
2022/03/24 01:41:07;;;;;;;18.50;16.50;;;;;;;18.71;41.72;99875.13;1793616;80;21021;-64
2022/03/24 01:43:35;;;;;;;18.10;16.30;;;;;;;18.71;41.75;99872.97;1793605;79;21041;-64
2022/03/24 01:46:04;;;;;;;18.92;16.93;;;;;;;18.69;41.74;99865.11;1793607;80;21241;-64
2022/03/24 01:48:30;;;;;;;19.37;17.32;;;;;;;18.67;41.77;99858.59;1793589;80;21573;-63
2022/03/24 01:50:57;;;;;;;19.32;17.37;;;;;;;18.67;41.77;99864.51;1768486;80;21521;-63
2022/03/24 01:53:24;;;;;;;18.85;16.95;;;;;;;18.66;41.75;99854.80;1793558;80;21107;-64
2022/03/24 01:55:54;;;;;;;17.73;16.02;;;;;;;18.64;41.76;99853.67;1793636;80;21548;-65
2022/03/24 01:58:21;;;;;;;19.20;17.37;;;;;;;18.63;41.76;99849.31;1793751;80;21144;-65
2022/03/24 02:00:49;;;;;;;17.92;16.12;;;;;;;18.62;41.76;99851.72;1763439;80;21033;-64
2022/03/24 02:03:16;;;;;;;20.00;18.02;;;;;;;18.60;41.77;99847.08;1793514;80;21027;-64
2022/03/24 02:05:44;;;;;;;19.17;17.17;;;;;;;18.60;41.77;99841.70;1793570;80;20997;-63
2022/03/24 02:08:12;;;;;;;18.92;16.97;;;;;;;18.60;41.78;99846.23;1781942;80;21019;-64
2022/03/24 02:10:40;;;;;;;19.85;17.82;;;;;;;18.58;41.77;99834.37;1780850;80;21034;-64
2022/03/24 02:13:08;;;;;;;19.85;17.95;;;;;;;18.57;41.79;99836.75;1751255;79;21002;-64
2022/03/24 02:15:36;;;;;;;19.40;17.50;;;;;;;18.56;41.81;99831.58;1789303;80;21565;-64
2022/03/24 02:18:03;;;;;;;19.60;17.70;;;;;;;18.55;41.80;99833.45;1759960;80;21208;-63
2022/03/24 02:20:33;;;;;;;18.73;16.93;;;;;;;18.53;41.81;99830.16;1789152;80;21679;-63
2022/03/24 02:23:04;;;;;;;18.75;16.80;;;;;;;18.52;41.81;99823.11;1789843;79;21118;-64
2022/03/24 02:25:33;;;;;;;18.82;16.93;;;;;;;18.51;41.82;99824.17;1801282;79;21088;-62
2022/03/24 02:28:02;;;;;;;18.52;16.62;;;;;;;18.50;41.81;99824.38;1792471;80;21076;-65
2022/03/24 02:30:29;;;;;;;20.15;18.10;;;;;;;18.49;41.82;99824.09;1792202;79;21017;-63
2022/03/24 02:32:57;;;;;;;18.30;16.40;;;;;;;18.47;41.84;99825.13;1792232;80;21520;-64
2022/03/24 02:35:24;;;;;;;18.62;16.77;;;;;;;18.46;41.83;99818.61;1792375;80;21548;-64
2022/03/24 02:37:51;;;;;;;18.92;16.97;;;;;;;18.46;41.84;99823.98;1792147;80;21060;-63
2022/03/24 02:40:19;;;;;;;19.15;17.12;;;;;;;18.43;41.86;99813.69;1788301;80;21152;-65
2022/03/24 02:42:48;;;;;;;19.60;17.50;;;;;;;18.43;41.85;99812.34;1760826;81;21087;-64
2022/03/24 02:45:14;;;;;;;17.95;16.15;;;;;;;18.42;41.86;99814.71;1767327;80;21532;-63
2022/03/24 02:47:41;;;;;;;17.77;15.88;;;;;;;18.42;41.86;99812.84;1781489;80;22152;-65
2022/03/24 02:50:09;;;;;;;18.62;16.82;;;;;;;18.41;41.85;99811.73;1792119;80;21521;-64
2022/03/24 02:52:38;;;;;;;18.20;16.27;;;;;;;18.39;41.88;99813.29;1760850;81;21041;-64
2022/03/24 02:55:07;;;;;;;18.35;16.42;;;;;;;18.39;41.87;99813.82;1760895;81;21006;-64
2022/03/24 02:57:35;;;;;;;19.15;17.15;;;;;;;18.38;41.88;99811.63;1762172;80;21021;-64
2022/03/24 03:00:01;;;;;;;18.60;16.75;;;;;;;18.36;41.89;99808.34;1760882;81;21259;-64
2022/03/24 03:02:29;;;;;;;18.70;16.57;;;;;;;18.36;41.88;99804.30;1760824;81;21706;-66
2022/03/24 03:04:57;;;;;;;18.57;16.77;;;;;;;18.35;41.90;99804.52;1761021;81;21509;-64
2022/03/24 03:07:23;;;;;;;19.32;17.30;;;;;;;18.34;41.91;99792.12;1760720;81;21041;-64
2022/03/24 03:09:50;;;;;;;19.55;17.55;;;;;;;18.34;41.89;99799.66;1760993;81;21005;-64
2022/03/24 03:12:16;;;;;;;18.90;17.02;;;;;;;18.33;41.89;99791.80;1760733;81;22140;-64
2022/03/24 03:14:48;;;;;;;18.80;16.82;;;;;;;18.31;41.91;99788.52;1761815;80;20994;-64
2022/03/24 03:17:19;;;;;;;19.85;17.87;;;;;;;18.30;41.91;99783.66;1760815;81;21005;-64
2022/03/24 03:19:45;;;;;;;18.57;16.70;;;;;;;18.28;41.93;99781.19;1760105;81;21024;-64
2022/03/24 03:22:13;;;;;;;19.30;17.30;;;;;;;18.29;41.93;99776.62;1760822;81;21048;-63
2022/03/24 03:24:40;;;;;;;18.90;16.90;;;;;;;18.27;41.94;99772.83;1760984;81;21836;-65
2022/03/24 03:27:07;;;;;;;18.85;16.93;;;;;;;18.26;41.93;99776.55;1766178;81;21638;-63
2022/03/24 03:29:35;;;;;;;20.95;18.50;;;;;;;18.25;41.94;99772.72;1770331;81;21025;-64
2022/03/24 03:32:02;;;;;;;19.07;17.07;;;;;;;18.24;41.94;99771.09;1784965;79;21084;-64
2022/03/24 03:34:31;;;;;;;20.37;18.25;;;;;;;18.23;41.92;99770.78;1802098;79;21088;-63
2022/03/24 03:36:59;;;;;;;19.92;17.87;;;;;;;18.22;41.96;99765.92;1801949;79;21246;-63
2022/03/24 03:39:26;;;;;;;20.35;18.10;;;;;;;18.21;41.96;99770.98;1802123;79;21021;-63
2022/03/24 03:41:52;;;;;;;19.62;17.12;;;;;;;18.20;41.95;99766.67;1801994;79;21076;-63
2022/03/24 03:44:20;;;;;;;20.70;18.50;;;;;;;18.19;41.97;99767.69;1801978;79;21546;-64
2022/03/24 03:46:47;;;;;;;19.27;17.27;;;;;;;18.18;41.97;99774.13;1801907;79;22061;-64
2022/03/24 03:49:14;;;;;;;19.95;17.92;;;;;;;18.18;41.97;99784.06;1795507;79;21144;-63
2022/03/24 03:51:42;;;;;;;19.77;17.77;;;;;;;18.16;41.96;99779.43;1776527;80;20998;-64
2022/03/24 03:54:10;;;;;;;20.25;18.20;;;;;;;18.15;41.98;99782.61;1767477;78;21081;-64
2022/03/24 03:56:37;;;;;;;20.05;17.90;;;;;;;18.14;41.99;99787.70;1780909;80;21006;-63
2022/03/24 03:59:05;;;;;;;21.17;18.57;;;;;;;18.14;41.99;99791.73;1780841;80;21002;-63
2022/03/24 04:01:32;;;;;;;20.48;18.35;;;;;;;18.13;41.99;99793.30;1780745;80;21230;-64
2022/03/24 04:03:59;;;;;;;20.20;17.65;;;;;;;18.11;42.00;99796.19;1780871;80;20999;-65
2022/03/24 04:06:25;;;;;;;20.00;17.98;;;;;;;18.11;42.00;99797.53;1806647;78;21025;-64
2022/03/24 04:08:52;;;;;;;21.25;18.67;;;;;;;18.10;42.00;99797.74;1823065;78;20978;-64
2022/03/24 04:11:19;;;;;;;21.00;18.77;;;;;;;18.09;41.99;99798.27;1750661;81;21033;-64
2022/03/24 04:13:46;;;;;;;23.87;19.75;;;;;;;18.09;41.99;99804.99;1754191;81;21297;-64
2022/03/24 04:16:12;;;;;;;20.55;18.35;;;;;;;18.07;42.00;99798.48;1750477;82;20979;-64
2022/03/24 04:18:44;;;;;;;21.82;18.40;;;;;;;18.06;42.01;99800.06;1754208;81;21049;-64
2022/03/24 04:21:10;;;;;;;23.35;20.08;;;;;;;18.05;42.01;99801.09;1750627;82;21030;-65
2022/03/24 04:23:38;;;;;;;21.90;19.60;;;;;;;18.04;42.01;99800.77;1772678;80;21085;-65
2022/03/24 04:26:05;;;;;;;21.25;19.10;;;;;;;18.04;42.01;99803.46;1777341;80;21238;-64
2022/03/24 04:28:32;;;;;;;22.15;19.77;;;;;;;18.03;42.01;99806.67;1792858;80;21002;-64
2022/03/24 04:30:59;;;;;;;22.58;20.20;;;;;;;18.04;42.04;99806.15;1793008;80;21022;-64
2022/03/24 04:33:26;;;;;;;21.93;19.55;;;;;;;18.02;42.01;99806.39;1780490;80;21553;-64
2022/03/24 04:35:53;;;;;;;22.13;19.73;;;;;;;18.02;42.03;99802.85;1792926;80;21014;-63
2022/03/24 04:38:21;;;;;;;22.67;20.20;;;;;;;18.01;42.03;99807.41;1792970;80;21001;-63
2022/03/24 04:40:48;;;;;;;22.45;20.00;;;;;;;18.00;42.06;99815.19;1796781;79;21003;-64
2022/03/24 04:43:15;;;;;;;21.60;19.05;;;;;;;18.00;42.07;99807.12;1805056;79;21029;-64
2022/03/24 04:45:42;;;;;;;22.22;19.45;;;;;;;17.99;42.07;99808.15;1805108;79;21075;-64
2022/03/24 04:48:08;;;;;;;22.07;19.27;;;;;;;17.98;42.04;99807.86;1805071;79;21013;-63
2022/03/24 04:50:35;;;;;;;22.82;20.43;;;;;;;17.98;42.05;99812.39;1805046;79;21534;-64
2022/03/24 04:53:02;;;;;;;21.45;19.25;;;;;;;17.98;42.07;99810.55;1804893;79;21028;-64
2022/03/24 04:55:29;;;;;;;21.55;19.30;;;;;;;17.97;42.08;99806.20;1804991;79;21032;-65
2022/03/24 04:57:57;;;;;;;22.93;19.85;;;;;;;17.97;42.07;99814.79;1797776;79;21012;-64
2022/03/24 05:00:24;;;;;;;22.58;19.92;;;;;;;17.96;42.08;99813.13;1774549;79;21079;-64
2022/03/24 05:02:50;;;;;;;23.80;20.97;;;;;;;17.96;42.10;99813.94;1773020;81;21141;-64
2022/03/24 05:05:18;;;;;;;22.67;20.40;;;;;;;17.97;42.09;99816.13;1819657;78;21472;-64
2022/03/24 05:07:44;;;;;;;23.57;21.02;;;;;;;17.96;42.08;99814.47;1819608;78;21053;-65
2022/03/24 05:10:11;;;;;;;22.55;20.25;;;;;;;17.95;42.10;99813.66;1819714;78;21501;-64
2022/03/24 05:12:39;;;;;;;22.27;19.82;;;;;;;17.96;42.10;99813.94;1819692;78;20977;-64
2022/03/24 05:15:09;;;;;;;22.05;19.05;;;;;;;17.97;42.09;99816.13;1825322;78;21229;-65
2022/03/24 05:17:37;;;;;;;22.93;20.00;;;;;;;17.96;42.11;99822.01;1789897;80;21065;-63
2022/03/24 05:20:05;;;;;;;22.62;19.65;;;;;;;17.95;42.09;99819.03;1805464;79;21049;-64
2022/03/24 05:22:35;;;;;;;23.83;21.00;;;;;;;17.96;42.10;99815.81;1805429;79;21536;-64
2022/03/24 05:25:03;;;;;;;21.82;19.60;;;;;;;17.96;42.10;99820.66;1805401;79;21033;-64
2022/03/24 05:27:30;;;;;;;21.55;19.25;;;;;;;17.96;42.11;99822.01;1805013;79;21996;-64
2022/03/24 05:29:57;;;;;;;23.25;20.70;;;;;;;17.96;42.10;99816.63;1804857;79;21963;-64
2022/03/24 05:32:23;;;;;;;22.50;20.15;;;;;;;17.97;42.10;99824.20;1804123;79;21496;-65
2022/03/24 05:34:50;;;;;;;23.67;21.07;;;;;;;17.97;42.09;99818.82;1804876;79;21037;-64
2022/03/24 05:37:17;;;;;;;24.02;21.15;;;;;;;17.97;42.10;99820.16;1804853;79;21016;-63
2022/03/24 05:39:44;;;;;;;23.18;20.72;;;;;;;17.97;42.10;99820.16;1794843;79;21234;-63
2022/03/24 05:42:10;;;;;;;22.50;20.08;;;;;;;17.96;42.10;99819.31;1774309;80;20997;-64
2022/03/24 05:44:37;;;;;;;21.35;19.07;;;;;;;17.97;42.10;99827.70;1773778;80;21088;-64
2022/03/24 05:47:05;;;;;;;24.25;21.73;;;;;;;17.98;42.09;99827.17;1775193;79;21127;-64
2022/03/24 05:49:32;;;;;;;23.10;19.98;;;;;;;17.99;42.10;99834.21;1789668;80;21002;-64
2022/03/24 05:52:16;;;;;;;;;;;;;;;17.99;42.10;99840.41;1671619;85;21171;-64
2022/03/24 05:54:43;;;;;;;23.27;20.70;;;;;;;17.98;42.11;99837.92;1750038;80;20175;-64
2022/03/24 05:57:10;;;;;;;23.57;20.70;;;;;;;17.98;42.11;99837.92;1795216;80;21028;-63
2022/03/24 05:59:37;;;;;;;21.70;19.32;;;;;;;17.98;42.13;99835.23;1786709;80;21026;-64
2022/03/24 06:02:05;;;;;;;22.70;20.20;;;;;;;17.99;42.10;99836.90;1786829;79;21482;-64
2022/03/24 06:04:31;;;;;;;22.80;20.17;;;;;;;18.00;42.12;99829.12;1796262;79;22024;-64
2022/03/24 06:06:58;;;;;;;23.73;21.33;;;;;;;18.00;42.12;99826.44;1786520;80;21489;-65
2022/03/24 06:09:24;;;;;;;23.55;21.05;;;;;;;18.01;42.12;99828.91;1786629;80;20963;-65
2022/03/24 06:11:52;;;;;;;23.32;21.02;;;;;;;18.02;42.11;99827.89;1786563;80;21025;-64
2022/03/24 06:14:20;;;;;;;22.93;20.43;;;;;;;18.03;42.10;99828.18;1786581;79;21002;-64
2022/03/24 06:16:47;;;;;;;23.87;20.02;;;;;;;18.04;42.11;99831.69;1795352;80;21526;-64
2022/03/24 06:19:14;;;;;;;23.65;18.90;;;;;;;18.05;42.12;99826.09;1786587;80;21010;-63
2022/03/24 06:21:42;;;;;;;22.22;19.35;;;;;;;18.05;42.11;99825.28;1786962;79;21010;-63
2022/03/24 06:24:09;;;;;;;21.40;19.20;;;;;;;18.07;42.11;99824.55;1786659;80;21017;-63
2022/03/24 06:26:35;;;;;;;22.48;19.73;;;;;;;18.08;42.13;99826.21;1786909;79;21076;-64
2022/03/24 06:29:02;;;;;;;22.00;19.65;;;;;;;18.08;42.13;99831.06;1797093;79;21253;-64
2022/03/24 06:31:30;;;;;;;21.17;18.85;;;;;;;18.11;42.11;99833.83;1811712;79;21471;-64
2022/03/24 06:33:57;;;;;;;21.80;19.52;;;;;;;18.11;42.10;99833.83;1792193;80;21011;-64
2022/03/24 06:36:24;;;;;;;21.37;19.17;;;;;;;18.13;42.12;99833.09;1792098;80;21037;-63
2022/03/24 06:38:51;;;;;;;21.20;18.95;;;;;;;18.15;42.14;99835.56;1792128;80;21072;-64
2022/03/24 06:41:18;;;;;;;22.32;19.85;;;;;;;18.16;42.13;99832.67;1792160;80;21237;-64
2022/03/24 06:43:46;;;;;;;19.85;17.87;;;;;;;18.16;42.12;99831.33;1792074;80;21006;-64
2022/03/24 06:46:12;;;;;;;21.30;19.00;;;;;;;18.17;42.13;99828.92;1792162;80;20982;-64
2022/03/24 06:48:40;;;;;;;19.57;17.57;;;;;;;18.19;42.12;99833.56;1792204;80;21084;-65
2022/03/24 06:51:07;;;;;;;21.07;18.82;;;;;;;18.20;42.11;99833.07;1792264;79;21524;-64
2022/03/24 06:53:34;;;;;;;22.48;19.15;;;;;;;18.21;42.12;99822.08;1792112;79;21229;-64
2022/03/24 06:56:02;;;;;;;21.52;18.92;;;;;;;18.22;42.14;99829.11;1791608;80;21022;-64
2022/03/24 06:58:29;;;;;;;20.77;18.52;;;;;;;18.23;42.15;99833.47;1792106;80;21037;-64
2022/03/24 07:00:56;;;;;;;19.80;17.75;;;;;;;18.24;42.14;99828.38;1792167;80;21518;-64
2022/03/24 07:03:22;;;;;;;18.98;16.97;;;;;;;18.26;42.18;99830.86;1792117;80;20994;-64
2022/03/24 07:05:49;;;;;;;18.60;16.70;;;;;;;18.27;42.18;99827.11;1792233;80;21190;-64
2022/03/24 07:08:16;;;;;;;19.37;17.48;;;;;;;18.28;42.18;99828.24;1791319;80;21001;-64
2022/03/24 07:10:44;;;;;;;18.98;17.02;;;;;;;18.30;42.19;99825.87;1778429;80;21029;-64
2022/03/24 07:13:12;;;;;;;20.05;17.98;;;;;;;18.31;42.21;99827.50;1765197;80;21529;-64
2022/03/24 07:15:40;;;;;;;19.77;17.70;;;;;;;18.32;42.24;99827.30;1761130;81;20994;-64
2022/03/24 07:18:08;;;;;;;18.87;16.85;;;;;;;18.33;42.28;99826.77;1760896;81;21248;-64
2022/03/24 07:20:37;;;;;;;19.50;17.60;;;;;;;18.35;42.31;99835.44;1760745;81;21013;-64
2022/03/24 07:23:08;;;;;;;19.23;17.12;;;;;;;18.36;42.34;99828.50;1760860;81;21017;-64
2022/03/24 07:25:33;;;;;;;17.55;15.78;;;;;;;18.38;42.34;99832.33;1760604;81;21041;-63
2022/03/24 07:28:00;;;;;;;19.10;16.93;;;;;;;18.38;42.36;99833.14;1764686;81;21048;-65
2022/03/24 07:30:27;;;;;;;17.82;15.93;;;;;;;18.40;42.39;99835.09;1771756;79;22149;-64
2022/03/24 07:32:58;;;;;;;17.95;16.12;;;;;;;18.42;42.40;99835.70;1770233;81;21032;-64
2022/03/24 07:35:27;;;;;;;16.90;15.17;;;;;;;18.43;42.37;99827.95;1770463;81;21073;-65
2022/03/24 07:37:54;;;;;;;17.90;16.00;;;;;;;18.45;42.36;99836.62;1770595;81;21025;-64
2022/03/24 07:40:21;;;;;;;17.40;15.60;;;;;;;18.46;42.32;99829.37;1801715;79;21036;-64
2022/03/24 07:42:52;;;;;;;17.85;16.15;;;;;;;18.48;42.35;99829.97;1802167;79;21124;-64
2022/03/24 07:45:22;;;;;;;18.25;16.35;;;;;;;18.49;42.35;99831.64;1802182;79;21462;-65
2022/03/24 07:48:10;;;;;;;16.50;14.78;;;;;;;18.51;42.33;99828.20;1800768;79;21110;-65
2022/03/24 07:50:42;;;;;;;16.93;15.23;;;;;;;18.52;42.29;99821.77;1801689;79;21012;-64
2022/03/24 07:53:18;;;;;;;17.77;15.87;;;;;;;18.55;42.30;99824.56;1802057;79;21084;-64
2022/03/24 07:55:46;;;;;;;17.73;15.80;;;;;;;18.56;42.29;99828.88;1801658;79;22145;-64
2022/03/24 07:58:14;;;;;;;17.15;15.38;;;;;;;18.58;42.27;99827.64;1801767;79;20998;-64
2022/03/24 08:00:43;;;;;;;18.37;15.88;;;;;;;18.59;42.23;99828.46;1802083;79;21021;-64
2022/03/24 08:03:18;;;;;;;16.60;14.93;;;;;;;18.62;42.23;99821.28;1801194;79;21525;-64
2022/03/24 08:05:46;;;;;;;16.02;14.38;;;;;;;18.64;42.22;99814.66;1801724;79;21017;-65
2022/03/24 08:08:14;;;;;;;16.37;14.68;;;;;;;18.66;42.22;99813.10;1801640;79;21242;-64
2022/03/24 08:10:44;;;;;;;17.57;15.80;;;;;;;18.69;42.22;99811.83;1801604;79;21099;-65
2022/03/24 08:13:16;;;;;;;15.40;13.83;;;;;;;18.70;42.19;99815.65;1801719;79;21033;-64
2022/03/24 08:15:43;;;;;;;15.43;13.85;;;;;;;18.73;42.18;99815.72;1801690;79;21099;-65
2022/03/24 08:18:10;;;;;;;16.70;14.95;;;;;;;18.74;42.18;99814.69;1802009;79;20981;-65
2022/03/24 08:20:38;;;;;;;15.63;14.03;;;;;;;18.77;42.19;99816.92;1798620;79;21246;-64
2022/03/24 08:23:05;;;;;;;15.25;13.80;;;;;;;18.80;42.19;99817.34;1789793;80;21474;-64
2022/03/24 08:25:32;;;;;;;15.00;13.45;;;;;;;18.81;42.17;99810.94;1789874;80;21050;-65
2022/03/24 08:27:59;;;;;;;15.78;14.30;;;;;;;18.85;42.17;99818.02;1787242;80;21033;-65
2022/03/24 08:30:26;;;;;;;15.43;13.83;;;;;;;18.87;42.15;99817.27;1780357;80;21010;-64
2022/03/24 08:32:52;;;;;;;17.23;14.53;;;;;;;18.90;42.15;99810.12;1780454;80;21230;-64
2022/03/24 08:35:19;;;;;;;16.07;14.33;;;;;;;18.92;42.16;99813.94;1757189;81;21009;-64
2022/03/24 08:37:46;;;;;;;14.65;13.13;;;;;;;18.95;42.13;99806.25;1788899;79;21003;-64
2022/03/24 08:40:12;;;;;;;15.60;14.10;;;;;;;18.99;42.14;99816.05;1784846;80;21006;-65
2022/03/24 08:42:40;;;;;;;15.28;13.28;;;;;;;19.00;42.15;99818.50;1814803;79;21080;-64
2022/03/24 08:45:09;;;;;;;15.75;13.85;;;;;;;19.03;42.16;99810.00;1798273;79;21215;-64
2022/03/24 08:47:35;;;;;;;14.80;13.30;;;;;;;19.06;42.12;99807.38;1814724;79;21009;-64
2022/03/24 08:50:04;;;;;;;14.78;13.13;;;;;;;19.09;42.15;99816.89;1798505;79;21013;-65
2022/03/24 08:52:32;;;;;;;15.55;13.80;;;;;;;19.13;42.14;99818.09;1814894;79;21068;-64
2022/03/24 08:54:58;;;;;;;13.62;12.23;;;;;;;19.15;42.12;99811.43;1798544;79;21017;-63
2022/03/24 08:57:27;;;;;;;14.38;12.98;;;;;;;19.19;42.07;99808.59;1800700;79;21234;-65
2022/03/24 08:59:57;;;;;;;13.85;12.45;;;;;;;19.22;42.10;99807.34;1800690;79;21145;-64
2022/03/24 09:02:23;;;;;;;13.53;12.18;;;;;;;19.25;42.06;99809.03;1766722;81;21024;-65
2022/03/24 09:04:51;;;;;;;14.03;12.70;;;;;;;19.30;42.05;99815.12;1800359;79;22084;-64
2022/03/24 09:07:18;;;;;;;14.23;12.53;;;;;;;19.32;42.10;99800.09;1788688;80;21614;-64
2022/03/24 09:09:46;;;;;;;13.72;12.33;;;;;;;19.36;42.10;99811.52;1768679;81;20985;-63
2022/03/24 09:12:13;;;;;;;13.95;12.43;;;;;;;19.40;42.17;99806.52;1793891;79;21061;-64
2022/03/24 09:14:42;;;;;;;13.32;12.03;;;;;;;19.42;42.17;99802.55;1766947;80;21003;-63
2022/03/24 09:17:08;;;;;;;13.25;11.93;;;;;;;19.49;42.13;99812.41;1755609;81;21037;-63
2022/03/24 09:19:35;;;;;;;13.03;11.83;;;;;;;19.52;42.15;99808.75;1795654;79;21169;-63
2022/03/24 09:22:04;;;;;;;13.05;11.85;;;;;;;19.55;42.18;99800.23;1780183;80;21200;-64
2022/03/24 09:24:32;;;;;;;14.70;12.68;;;;;;;19.61;42.13;99809.28;1752332;81;21026;-64
2022/03/24 09:27:00;;;;;;;13.43;12.03;;;;;;;19.66;42.13;99801.33;1755589;81;21029;-64
2022/03/24 09:29:27;;;;;;;12.53;11.33;;;;;;;19.70;42.05;99807.94;1782068;80;21021;-65
2022/03/24 09:31:54;;;;;;;12.73;11.43;;;;;;;19.75;42.04;99800.00;1792322;80;21006;-64
2022/03/24 09:34:20;;;;;;;12.90;11.53;;;;;;;19.81;41.97;99803.13;1792249;80;21246;-64
2022/03/24 09:36:49;;;;;;;12.43;11.22;;;;;;;19.88;41.96;99798.20;1792153;80;21068;-64
2022/03/24 09:39:15;;;;;;;12.60;11.30;;;;;;;19.94;41.92;99801.33;1792198;80;21157;-64
2022/03/24 09:41:46;;;;;;;12.37;11.15;;;;;;;20.00;41.95;99805.80;1792244;80;21005;-64
2022/03/24 09:44:12;;;;;;;12.35;11.05;;;;;;;20.07;41.93;99804.35;1792522;80;21056;-64
2022/03/24 09:46:39;;;;;;;12.03;10.82;;;;;;;20.15;41.91;99805.40;1791222;79;21282;-64
2022/03/24 09:49:06;;;;;;;11.88;10.68;;;;;;;20.19;41.91;99797.95;1792232;80;21519;-65
2022/03/24 09:51:32;;;;;;;11.95;10.75;;;;;;;20.25;41.84;99804.31;1765481;80;21518;-63
2022/03/24 09:53:59;;;;;;;11.88;10.68;;;;;;;20.32;41.83;99808.24;1792112;80;21069;-66
2022/03/24 09:56:26;;;;;;;11.50;10.40;;;;;;;20.36;41.82;99807.57;1792255;80;21166;-64
2022/03/24 09:58:52;;;;;;;11.20;10.15;;;;;;;20.40;41.79;99805.23;1792262;80;21257;-63
2022/03/24 10:01:20;;;;;;;11.65;10.38;;;;;;;20.46;41.79;99812.94;1792159;80;21264;-64
2022/03/24 10:04:09;;;;;;;11.65;10.58;;;;;;;20.49;41.76;99803.83;1791326;80;22156;-64
2022/03/24 10:06:39;;;;;;;11.65;10.55;;;;;;;20.55;41.72;99805.63;1792096;80;21533;-65
2022/03/24 10:09:07;;;;;;;12.55;11.25;;;;;;;20.61;41.65;99795.27;1792572;80;21064;-64
2022/03/24 10:11:35;;;;;;;10.60;9.50;;;;;;;20.66;41.63;99809.94;1792342;79;21273;-65
2022/03/24 10:14:02;;;;;;;10.95;9.85;;;;;;;20.72;41.65;99807.66;1792133;80;21041;-64
2022/03/24 10:16:43;;;;;;;11.18;10.03;;;;;;;20.75;41.63;99806.66;1792092;80;21072;-65
2022/03/24 10:19:10;;;;;;;11.08;9.98;;;;;;;20.80;41.60;99814.05;1789915;80;21084;-64
2022/03/24 10:21:39;;;;;;;10.60;9.58;;;;;;;20.84;41.52;99813.06;1761164;81;21041;-64
2022/03/24 10:24:13;;;;;;;11.18;10.08;;;;;;;20.89;41.51;99823.99;1760959;81;21184;-65
2022/03/24 10:27:00;;;;;;;11.15;10.05;;;;;;;20.93;41.49;99805.73;1766189;80;21045;-65
2022/03/24 10:29:25;;;;;;;9.73;8.83;;;;;;;20.97;41.46;99809.59;1767234;80;20993;-64
2022/03/24 10:31:57;;;;;;;11.30;10.20;;;;;;;21.02;41.40;99815.66;1774002;80;21032;-64
2022/03/24 10:34:36;;;;;;;10.23;9.23;;;;;;;21.06;41.41;99816.83;1774412;80;21068;-64
2022/03/24 10:37:05;;;;;;;10.13;9.23;;;;;;;21.13;41.35;99822.10;1766711;80;21244;-65
2022/03/24 10:39:34;;;;;;;10.45;9.38;;;;;;;21.16;41.37;99817.05;1755976;81;21002;-64
2022/03/24 10:42:17;;;;;;;9.80;8.90;;;;;;;21.21;41.33;99817.72;1755763;81;21040;-64
2022/03/24 10:45:15;;;;;;;10.05;9.13;;;;;;;21.26;41.26;99817.81;1748051;81;21017;-64
2022/03/24 10:47:56;;;;;;;10.43;9.43;;;;;;;21.32;41.23;99813.34;1755865;81;21573;-63
2022/03/24 10:50:41;;;;;;;10.10;8.95;;;;;;;21.34;41.24;99814.77;1755956;81;21155;-64
2022/03/24 10:53:12;;;;;;;10.25;9.30;;;;;;;21.37;41.20;99815.63;1756667;80;21030;-64
2022/03/24 10:56:04;;;;;;;10.05;9.15;;;;;;;21.38;41.17;99820.49;1755975;81;21062;-64
2022/03/24 10:58:43;;;;;;;10.68;9.63;;;;;;;21.43;41.13;99820.61;1751248;81;21104;-63
2022/03/24 11:01:12;;;;;;;9.40;8.60;;;;;;;21.46;41.12;99808.02;1755750;81;21205;-64
2022/03/24 11:03:39;;;;;;;10.45;9.45;;;;;;;21.54;41.08;99808.99;1730607;81;21254;-63
2022/03/24 11:06:18;;;;;;;9.43;8.55;;;;;;;21.61;41.07;99826.42;1755644;81;20994;-64
2022/03/24 11:08:56;;;;;;;10.50;9.50;;;;;;;21.68;41.05;99814.95;1755690;81;21001;-64
2022/03/24 11:11:23;;;;;;;9.63;8.63;;;;;;;21.78;41.04;99817.03;1756669;80;21038;-63
2022/03/24 11:13:59;;;;;;;9.73;8.78;;;;;;;21.87;41.01;99818.84;1755846;81;21068;-64
2022/03/24 11:16:28;;;;;;;10.28;9.25;;;;;;;21.94;40.99;99815.44;1755745;81;21252;-63
2022/03/24 11:18:57;;;;;;;9.88;8.98;;;;;;;22.02;40.95;99819.64;1756421;80;21057;-63
2022/03/24 11:21:41;;;;;;;10.18;9.18;;;;;;;22.08;40.92;99823.58;1786940;80;21518;-64
2022/03/24 11:24:07;;;;;;;9.58;8.73;;;;;;;22.15;40.92;99822.88;1786495;80;21037;-64
2022/03/24 11:26:35;;;;;;;9.75;8.75;;;;;;;22.23;40.90;99819.50;1786763;80;20993;-63
2022/03/24 11:29:03;;;;;;;9.98;9.08;;;;;;;22.30;40.86;99812.90;1765178;80;21263;-65